createdAt,value
2023-08-20T00:02:27.896Z,99954.56
2023-08-20T00:05:00.203Z,99949.19
2023-08-20T00:07:29.665Z,99956.78
2023-08-20T00:09:58.198Z,99954.16
2023-08-20T00:12:27.374Z,99962.00
2023-08-20T00:15:00.025Z,99963.13
2023-08-20T00:17:29.447Z,99955.56
2023-08-20T00:19:58.758Z,99957.69
2023-08-20T00:22:29.183Z,99949.16
2023-08-20T00:24:58.576Z,99951.75
2023-08-20T00:27:27.410Z,99944.69
2023-08-20T00:29:57.737Z,99951.03
2023-08-20T00:32:26.817Z,99945.41
2023-08-20T00:34:55.547Z,99942.53
2023-08-20T00:37:24.806Z,99946.19
2023-08-20T00:39:53.747Z,99938.59
2023-08-20T00:42:22.829Z,99939.56
2023-08-20T00:44:51.718Z,99938.75
2023-08-20T00:47:22.864Z,99943.06
2023-08-20T00:49:52.314Z,99946.53
2023-08-20T00:52:23.272Z,99946.69
2023-08-20T00:54:52.813Z,99941.72
2023-08-20T00:57:24.977Z,99939.00
2023-08-20T00:59:53.955Z,99941.50
2023-08-20T01:02:24.515Z,99941.50
2023-08-20T01:04:55.091Z,99943.94
2023-08-20T01:07:33.072Z,99952.47
2023-08-20T01:10:10.854Z,99944.88
2023-08-20T01:12:41.408Z,99952.59
2023-08-20T01:15:15.061Z,99949.03
2023-08-20T01:17:49.051Z,99952.53
2023-08-20T01:20:18.359Z,99952.59
2023-08-20T01:23:19.052Z,99956.03
2023-08-20T01:26:05.707Z,99958.75
2023-08-20T01:28:36.886Z,99962.97
2023-08-20T01:31:06.572Z,99960.44
2023-08-20T01:33:35.831Z,99967.19
2023-08-20T01:36:11.690Z,99954.28
2023-08-20T01:38:40.780Z,99962.97
2023-08-20T01:41:09.550Z,99952.59
2023-08-20T01:43:39.800Z,99952.41
2023-08-20T01:46:11.320Z,99957.53
2023-08-20T01:48:40.295Z,99958.53
2023-08-20T01:51:10.084Z,99951.72
2023-08-20T01:53:39.092Z,99959.53
2023-08-20T01:56:13.656Z,99951.69
2023-08-20T01:58:44.390Z,99949.28
2023-08-20T02:01:13.741Z,99951.88
2023-08-20T02:03:42.764Z,99953.50
2023-08-20T02:06:11.828Z,99950.84
2023-08-20T02:08:40.662Z,99949.09
2023-08-20T02:11:09.717Z,99951.69
2023-08-20T02:13:38.949Z,99951.72
2023-08-20T02:16:09.170Z,99956.81
2023-08-20T02:18:38.774Z,99956.81
2023-08-20T02:21:07.673Z,99963.09
2023-08-20T02:23:37.292Z,99965.88
2023-08-20T02:26:08.537Z,99962.50
2023-08-20T02:28:37.531Z,99964.31
2023-08-20T02:31:08.505Z,99965.19
2023-08-20T02:33:37.485Z,99965.88
2023-08-20T02:36:07.252Z,99957.97
2023-08-20T02:38:36.567Z,99952.00
2023-08-20T02:41:05.479Z,99953.69
2023-08-20T02:43:34.851Z,99943.31
2023-08-20T02:46:04.362Z,99944.88
2023-08-20T02:48:35.112Z,99937.28
2023-08-20T02:51:04.044Z,99945.91
2023-08-20T02:53:32.962Z,99952.00
2023-08-20T02:56:02.061Z,99946.91
2023-08-20T02:58:31.822Z,99952.13
2023-08-20T03:01:01.196Z,99947.84
2023-08-20T03:03:30.076Z,99941.84
2023-08-20T03:06:02.150Z,99958.28
2023-08-20T03:08:30.955Z,99948.84
2023-08-20T03:10:59.936Z,99958.47
2023-08-20T03:13:28.879Z,99954.19
2023-08-20T03:15:57.767Z,99963.00
2023-08-20T03:18:26.834Z,99959.63
2023-08-20T03:20:57.930Z,99963.91
2023-08-20T03:23:29.665Z,99966.50
2023-08-20T03:26:01.133Z,99962.31
2023-08-20T03:28:30.265Z,99954.59
2023-08-20T03:31:03.453Z,99966.75
2023-08-20T03:33:37.235Z,99968.63
2023-08-20T03:36:06.664Z,99963.38
2023-08-20T03:38:36.993Z,99971.94
2023-08-20T03:41:07.787Z,99967.66
2023-08-20T03:43:38.623Z,99968.56
2023-08-20T03:46:07.764Z,99977.22
2023-08-20T03:48:36.653Z,99972.28
2023-08-20T03:51:07.266Z,99971.50
2023-08-20T03:53:37.679Z,99976.59
2023-08-20T03:56:07.020Z,99979.97
2023-08-20T03:58:35.766Z,99983.44
2023-08-20T04:01:05.272Z,99981.72
2023-08-20T04:03:34.616Z,99985.28
2023-08-20T04:06:03.244Z,99981.81
2023-08-20T04:08:32.167Z,99984.25
2023-08-20T04:11:03.798Z,99985.22
2023-08-20T04:13:32.825Z,99981.91
2023-08-20T04:16:01.640Z,99982.69
2023-08-20T04:18:30.948Z,99976.81
2023-08-20T04:20:59.838Z,99974.13
2023-08-20T04:23:28.995Z,99983.56
2023-08-20T04:26:00.565Z,99985.22
2023-08-20T04:28:31.007Z,99980.75
2023-08-20T04:31:01.655Z,99982.44
2023-08-20T04:33:40.371Z,99983.16
2023-08-20T04:36:09.686Z,99986.44
2023-08-20T04:38:38.547Z,99982.09
2023-08-20T04:41:08.027Z,99980.16
2023-08-20T04:43:38.648Z,99979.91
2023-08-20T04:46:08.488Z,99983.28
2023-08-20T04:48:37.309Z,99979.00
2023-08-20T04:51:08.447Z,99978.19
2023-08-20T04:53:38.286Z,99976.53
2023-08-20T04:56:07.179Z,99971.22
2023-08-20T04:58:36.121Z,99979.53
2023-08-20T05:01:07.188Z,99979.53
2023-08-20T05:03:38.277Z,99987.31
2023-08-20T05:06:07.386Z,99980.16
2023-08-20T05:08:36.136Z,99986.91
2023-08-20T05:11:04.986Z,99991.00
2023-08-20T05:13:33.785Z,99994.91
2023-08-20T05:16:03.244Z,99995.56
2023-08-20T05:18:33.528Z,99992.72
2023-08-20T05:21:03.765Z,99988.06
2023-08-20T05:23:32.686Z,99998.88
2023-08-20T05:26:01.511Z,99996.94
2023-08-20T05:28:30.386Z,100000.94
2023-08-20T05:30:59.566Z,100006.59
2023-08-20T05:33:28.804Z,100012.25
2023-08-20T05:35:59.522Z,100000.66
2023-08-20T05:38:29.469Z,100012.38
2023-08-20T05:40:58.377Z,100012.75
2023-08-20T05:43:27.237Z,100016.44
2023-08-20T05:45:56.269Z,100018.69
2023-08-20T05:48:26.457Z,100017.50
2023-08-20T05:50:55.378Z,100016.53
2023-08-20T05:53:25.898Z,100025.00
2023-08-20T05:55:55.443Z,100022.91
2023-08-20T05:58:24.418Z,100022.22
2023-08-20T06:00:53.798Z,100024.25
2023-08-20T06:03:23.393Z,100022.91
2023-08-20T06:05:52.237Z,100035.66
2023-08-20T06:08:21.082Z,100027.06
2023-08-20T06:10:51.300Z,100034.31
2023-08-20T06:13:20.209Z,100032.31
2023-08-20T06:15:49.475Z,100030.16
2023-08-20T06:18:18.298Z,100034.47
2023-08-20T06:20:47.078Z,100030.56
2023-08-20T06:23:31.871Z,100033.69
2023-08-20T06:26:07.292Z,100031.88
2023-08-20T06:28:36.215Z,100031.28
2023-08-20T06:31:05.102Z,100029.75
2023-08-20T06:33:34.007Z,100027.28
2023-08-20T06:36:02.946Z,100031.88
2023-08-20T06:38:31.852Z,100027.09
2023-08-20T06:41:00.733Z,100029.38
2023-08-20T06:43:31.499Z,100032.28
2023-08-20T06:46:00.425Z,100033.16
2023-08-20T06:48:29.296Z,100037.19
2023-08-20T06:50:58.713Z,100032.44
2023-08-20T06:53:27.937Z,100035.50
2023-08-20T06:55:56.726Z,100039.47
2023-08-20T06:58:25.737Z,100043.50
2023-08-20T07:00:56.029Z,100038.78
2023-08-20T07:03:24.986Z,100045.03
2023-08-20T07:05:53.812Z,100038.28
2023-08-20T07:08:22.798Z,100039.34
2023-08-20T07:10:51.547Z,100043.34
2023-08-20T07:13:20.380Z,100040.88
2023-08-20T07:15:49.157Z,100044.00
2023-08-20T07:18:19.459Z,100047.88
2023-08-20T07:20:48.552Z,100049.19
2023-08-20T07:23:17.288Z,100040.75
2023-08-20T07:25:48.084Z,100040.22
2023-08-20T07:28:22.273Z,100044.94
2023-08-20T07:30:51.117Z,100039.31
2023-08-20T07:33:21.369Z,100038.97
2023-08-20T07:35:50.228Z,100039.94
2023-08-20T07:38:19.178Z,100039.16
2023-08-20T07:40:48.002Z,100038.53
2023-08-20T07:43:16.780Z,100041.25
2023-08-20T07:45:45.835Z,100039.22
2023-08-20T07:48:15.219Z,100029.88
2023-08-20T07:50:45.551Z,100041.38
2023-08-20T07:53:14.382Z,100040.88
2023-08-20T07:55:43.516Z,100036.94
2023-08-20T07:58:12.089Z,100032.41
2023-08-20T08:00:40.839Z,100029.41
2023-08-20T08:03:11.088Z,100026.47
2023-08-20T08:05:40.031Z,100037.22
2023-08-20T08:08:10.364Z,100029.16
2023-08-20T08:10:39.339Z,100032.31
2023-08-20T08:13:09.589Z,100029.88
2023-08-20T08:15:39.119Z,100027.16
2023-08-20T08:18:07.771Z,100031.81
2023-08-20T08:20:37.029Z,100025.75
2023-08-20T08:23:06.282Z,100030.91
2023-08-20T08:25:36.689Z,100029.56
2023-08-20T08:28:06.173Z,100033.97
2023-08-20T08:30:35.106Z,100026.91
2023-08-20T08:33:03.928Z,100019.91
2023-08-20T08:35:32.598Z,100031.06
2023-08-20T08:38:01.562Z,100028.13
2023-08-20T08:40:31.819Z,100026.00
2023-08-20T08:43:05.711Z,100028.91
2023-08-20T08:45:35.903Z,100024.69
2023-08-20T08:48:05.540Z,100018.34
2023-08-20T08:50:34.828Z,100016.03
2023-08-20T08:53:03.981Z,100015.38
2023-08-20T08:55:32.392Z,100013.22
2023-08-20T08:58:02.566Z,100013.88
2023-08-20T09:00:33.819Z,100015.72
2023-08-20T09:03:03.155Z,100008.50
2023-08-20T09:05:31.956Z,100002.81
2023-08-20T09:08:00.811Z,100013.50
2023-08-20T09:10:29.851Z,100013.06
2023-08-20T09:12:59.218Z,100015.25
2023-08-20T09:15:36.974Z,100011.19
2023-08-20T09:18:06.195Z,100015.78
2023-08-20T09:20:37.803Z,100014.84
2023-08-20T09:23:06.879Z,100014.16
2023-08-20T09:25:35.355Z,100017.97
2023-08-20T09:28:05.837Z,100018.47
2023-08-20T09:30:36.751Z,100015.81
2023-08-20T09:33:07.232Z,100019.66
2023-08-20T09:35:36.246Z,100019.44
2023-08-20T09:38:08.030Z,100017.75
2023-08-20T09:40:36.832Z,100021.66
2023-08-20T09:43:09.647Z,100015.41
2023-08-20T09:45:41.075Z,100014.66
2023-08-20T09:48:11.974Z,100007.09
2023-08-20T09:50:42.975Z,100015.72
2023-08-20T09:53:24.235Z,100010.28
2023-08-20T09:55:54.959Z,100005.38
2023-08-20T09:58:27.005Z,100008.94
2023-08-20T10:00:59.226Z,100004.84
2023-08-20T10:03:28.267Z,100008.25
2023-08-20T10:05:59.437Z,100002.50
2023-08-20T10:08:29.479Z,100000.03
2023-08-20T10:10:58.584Z,99998.75
2023-08-20T10:13:27.454Z,100000.06
2023-08-20T10:15:58.014Z,99993.91
2023-08-20T10:18:29.011Z,99994.50
2023-08-20T10:21:04.190Z,99999.38
2023-08-20T10:23:34.676Z,99994.34
2023-08-20T10:26:10.358Z,99998.69
2023-08-20T10:28:39.560Z,99996.47
2023-08-20T10:31:14.192Z,99987.06
2023-08-20T10:33:52.387Z,99995.38
2023-08-20T10:36:27.606Z,99991.25
2023-08-20T10:38:58.230Z,99985.91
2023-08-20T10:41:30.884Z,99983.66
2023-08-20T10:44:01.648Z,99991.94
2023-08-20T10:46:32.651Z,99988.75
2023-08-20T10:49:05.367Z,99990.56
2023-08-20T10:51:36.596Z,99987.97
2023-08-20T10:54:08.399Z,99986.97
2023-08-20T10:56:42.334Z,99982.63
2023-08-20T10:59:12.058Z,99982.25
2023-08-20T11:01:42.777Z,99982.28
2023-08-20T11:04:11.976Z,99974.69
2023-08-20T11:06:41.636Z,99973.13
2023-08-20T11:09:12.236Z,99974.38
2023-08-20T11:11:41.828Z,99969.91
2023-08-20T11:14:16.184Z,99979.97
2023-08-20T11:16:47.193Z,99979.84
2023-08-20T11:19:17.366Z,99972.66
2023-08-20T11:21:47.358Z,99974.25
2023-08-20T11:24:16.378Z,99975.06
2023-08-20T11:26:45.039Z,99973.75
2023-08-20T11:29:15.228Z,99972.41
2023-08-20T11:31:45.697Z,99968.81
2023-08-20T11:34:15.211Z,99969.91
2023-08-20T11:36:44.468Z,99966.31
2023-08-20T11:39:13.555Z,99968.25
2023-08-20T11:41:43.172Z,99967.16
2023-08-20T11:44:12.130Z,99974.88
2023-08-20T11:46:46.680Z,99976.81
2023-08-20T11:49:16.425Z,99962.81
2023-08-20T11:51:48.269Z,99963.50
2023-08-20T11:54:19.381Z,99964.63
2023-08-20T11:56:49.852Z,99958.22
2023-08-20T11:59:20.973Z,99952.69
2023-08-20T12:01:54.544Z,99945.84
2023-08-20T12:04:27.624Z,99946.78
2023-08-20T12:07:06.531Z,99952.88
2023-08-20T12:09:36.214Z,99943.13
2023-08-20T12:12:08.177Z,99943.69
2023-08-20T12:14:37.863Z,99938.53
2023-08-20T12:17:08.248Z,99942.81
2023-08-20T12:19:37.083Z,99939.47
2023-08-20T12:22:06.009Z,99940.28
2023-08-20T12:24:35.443Z,99935.09
2023-08-20T12:27:04.929Z,99935.09
2023-08-20T12:29:33.808Z,99934.16
2023-08-20T12:32:02.906Z,99935.78
2023-08-20T12:34:33.223Z,99934.03
2023-08-20T12:37:02.432Z,99929.16
2023-08-20T12:39:31.324Z,99935.69
2023-08-20T12:42:00.428Z,99933.41
2023-08-20T12:44:29.181Z,99932.09
2023-08-20T12:46:57.675Z,99926.66
2023-08-20T12:49:26.419Z,99928.69
2023-08-20T12:51:56.543Z,99923.75
2023-08-20T12:54:25.400Z,99922.75
2023-08-20T12:56:53.964Z,99922.63
2023-08-20T12:59:24.878Z,99920.41
2023-08-20T13:01:55.885Z,99918.00
2023-08-20T13:04:25.345Z,99916.19
2023-08-20T13:06:54.671Z,99920.75
2023-08-20T13:09:25.571Z,99910.66
2023-08-20T13:11:58.379Z,99911.91
2023-08-20T13:14:27.933Z,99905.13
2023-08-20T13:16:57.923Z,99907.19
2023-08-20T13:19:26.582Z,99895.50
2023-08-20T13:21:55.549Z,99903.03
2023-08-20T13:24:25.320Z,99899.97
2023-08-20T13:26:54.301Z,99908.91
2023-08-20T13:29:22.680Z,99912.53
2023-08-20T13:31:51.688Z,99900.13
2023-08-20T13:34:20.252Z,99896.63
2023-08-20T13:36:49.804Z,99902.88
2023-08-20T13:39:19.705Z,99896.34
2023-08-20T13:41:52.562Z,99890.22
2023-08-20T13:44:22.581Z,99896.06
2023-08-20T13:46:51.459Z,99893.13
2023-08-20T13:49:20.116Z,99893.75
2023-08-20T13:51:48.992Z,99899.41
2023-08-20T13:54:17.849Z,99887.16
2023-08-20T13:56:46.721Z,99897.34
2023-08-20T13:59:16.671Z,99894.09
2023-08-20T14:01:45.460Z,99891.63
2023-08-20T14:04:15.554Z,99889.41
2023-08-20T14:06:46.601Z,99884.53
2023-08-20T14:09:15.442Z,99885.38
2023-08-20T14:11:44.404Z,99888.56
2023-08-20T14:14:12.953Z,99889.13
2023-08-20T14:16:43.258Z,99893.03
2023-08-20T14:19:12.497Z,99883.00
2023-08-20T14:21:41.210Z,99875.91
2023-08-20T14:24:10.316Z,99875.63
2023-08-20T14:26:39.064Z,99872.69
2023-08-20T14:29:07.851Z,99879.50
2023-08-20T14:31:36.785Z,99867.69
2023-08-20T14:34:07.502Z,99869.06
2023-08-20T14:36:36.378Z,99867.53
2023-08-20T14:39:06.014Z,99869.31
2023-08-20T14:41:35.203Z,99862.09
2023-08-20T14:44:04.375Z,99869.91
2023-08-20T14:46:33.342Z,99870.72
2023-08-20T14:49:02.074Z,99872.56
2023-08-20T14:51:32.417Z,99869.06
2023-08-20T14:54:01.314Z,99866.97
2023-08-20T14:56:30.991Z,99864.88
2023-08-20T14:58:59.978Z,99863.78
2023-08-20T15:01:28.468Z,99864.63
2023-08-20T15:03:57.483Z,99863.09
2023-08-20T15:06:28.001Z,99870.19
2023-08-20T15:08:58.597Z,99868.75
2023-08-20T15:11:29.351Z,99877.94
2023-08-20T15:13:58.232Z,99879.88
2023-08-20T15:16:27.051Z,99876.56
2023-08-20T15:18:56.922Z,99861.38
2023-08-20T15:21:25.640Z,99867.66
2023-08-20T15:23:54.404Z,99863.59
2023-08-20T15:26:24.801Z,99864.84
2023-08-20T15:28:53.599Z,99861.78
2023-08-20T15:31:22.560Z,99861.78
2023-08-20T15:33:53.344Z,99860.41
2023-08-20T15:36:22.193Z,99851.19
2023-08-20T15:38:51.004Z,99860.91
2023-08-20T15:41:19.811Z,99855.34
2023-08-20T15:43:51.126Z,99850.56
2023-08-20T15:46:20.094Z,99858.09
2023-08-20T15:48:48.952Z,99856.94
2023-08-20T15:51:17.569Z,99858.56
2023-08-20T15:53:46.384Z,99847.16
2023-08-20T15:56:15.335Z,99849.91
2023-08-20T15:58:44.023Z,99847.09
2023-08-20T16:01:14.335Z,99851.00
2023-08-20T16:03:44.523Z,99856.78
2023-08-20T16:06:13.748Z,99857.03
2023-08-20T16:08:42.141Z,99853.94
2023-08-20T16:11:11.003Z,99853.38
2023-08-20T16:13:39.714Z,99858.09
2023-08-20T16:16:08.628Z,99854.16
2023-08-20T16:18:38.832Z,99863.56
2023-08-20T16:21:10.976Z,99858.00
2023-08-20T16:23:39.879Z,99859.34
2023-08-20T16:26:08.674Z,99862.88
2023-08-20T16:28:38.516Z,99860.03
2023-08-20T16:31:08.299Z,99856.09
2023-08-20T16:33:38.561Z,99856.84
2023-08-20T16:36:07.646Z,99856.66
2023-08-20T16:38:36.144Z,99860.44
2023-08-20T16:41:05.360Z,99860.59
2023-08-20T16:43:37.211Z,99863.34
2023-08-20T16:46:05.996Z,99865.28
2023-08-20T16:48:34.755Z,99862.69
2023-08-20T16:51:06.369Z,99867.53
2023-08-20T16:53:35.171Z,99869.91
2023-08-20T16:56:04.393Z,99864.88
2023-08-20T16:58:33.990Z,99859.38
2023-08-20T17:01:05.823Z,99867.28
2023-08-20T17:03:34.941Z,99864.97
2023-08-20T17:06:05.528Z,99861.81
2023-08-20T17:08:34.385Z,99862.50
2023-08-20T17:11:08.056Z,99860.91
2023-08-20T17:13:39.064Z,99856.75
2023-08-20T17:16:08.614Z,99861.03
2023-08-20T17:18:37.903Z,99873.28
2023-08-20T17:21:08.730Z,99858.41
2023-08-20T17:23:37.640Z,99867.56
2023-08-20T17:26:06.406Z,99867.63
2023-08-20T17:28:35.312Z,99872.16
2023-08-20T17:31:05.545Z,99868.00
2023-08-20T17:33:35.252Z,99868.13
2023-08-20T17:36:04.753Z,99867.22
2023-08-20T17:38:34.896Z,99861.53
2023-08-20T17:41:06.147Z,99872.09
2023-08-20T17:43:35.040Z,99871.38
2023-08-20T17:46:04.048Z,99862.66
2023-08-20T17:48:33.071Z,99859.94
2023-08-20T17:51:01.849Z,99867.28
2023-08-20T17:53:30.673Z,99867.59
2023-08-20T17:56:01.646Z,99871.56
2023-08-20T17:58:30.999Z,99868.47
2023-08-20T18:00:59.897Z,99874.50
2023-08-20T18:03:28.837Z,99874.63
2023-08-20T18:05:57.853Z,99881.25
2023-08-20T18:08:26.761Z,99885.25
2023-08-20T18:10:58.698Z,99890.84
2023-08-20T18:13:30.141Z,99885.28
2023-08-20T18:15:59.575Z,99883.41
2023-08-20T18:18:29.891Z,99891.06
2023-08-20T18:20:58.843Z,99902.09
2023-08-20T18:23:27.904Z,99899.69
2023-08-20T18:25:56.751Z,99898.75
2023-08-20T18:28:25.711Z,99907.72
2023-08-20T18:30:56.828Z,99912.25
2023-08-20T18:33:27.819Z,99916.00
2023-08-20T18:35:59.399Z,99914.53
2023-08-20T18:38:40.888Z,99910.41
2023-08-20T18:41:13.813Z,99922.44
2023-08-20T18:43:43.000Z,99921.22
2023-08-20T18:46:13.411Z,99930.88
2023-08-20T18:48:42.722Z,99941.63
2023-08-20T18:51:11.214Z,99941.72
2023-08-20T18:53:40.100Z,99949.00
2023-08-20T18:56:08.934Z,99946.69
2023-08-20T18:58:37.779Z,99948.75
2023-08-20T19:01:08.736Z,99944.72
2023-08-20T19:03:39.246Z,99959.41
2023-08-20T19:06:08.310Z,99968.75
2023-08-20T19:08:37.073Z,99967.13
2023-08-20T19:11:06.036Z,99971.03
2023-08-20T19:13:34.906Z,99969.59
2023-08-20T19:16:04.130Z,99980.50
2023-08-20T19:18:32.869Z,99975.44
2023-08-20T19:21:03.223Z,99983.63
2023-08-20T19:23:32.149Z,99976.22
2023-08-20T19:26:01.117Z,99988.53
2023-08-20T19:28:30.197Z,99997.53
2023-08-20T19:30:59.047Z,99996.03
2023-08-20T19:33:28.014Z,99999.16
2023-08-20T19:35:56.802Z,100006.31
2023-08-20T19:38:27.224Z,100003.38
2023-08-20T19:40:57.005Z,100015.69
2023-08-20T19:43:25.986Z,100012.06
2023-08-20T19:45:56.584Z,100015.59
2023-08-20T19:48:26.160Z,100012.41
2023-08-20T19:50:55.316Z,100013.50
2023-08-20T19:53:24.037Z,100012.28
2023-08-20T19:55:57.819Z,100010.44
2023-08-20T19:58:27.245Z,100023.59
2023-08-20T20:00:56.972Z,100026.25
2023-08-20T20:03:25.912Z,100028.59
2023-08-20T20:05:54.759Z,100028.75
2023-08-20T20:08:25.621Z,100029.06
2023-08-20T20:10:58.035Z,100028.63
2023-08-20T20:13:27.016Z,100021.97
2023-08-20T20:15:55.879Z,100020.13
2023-08-20T20:18:24.991Z,100020.28
2023-08-20T20:20:53.734Z,100022.38
2023-08-20T20:23:22.696Z,100028.03
2023-08-20T20:25:51.510Z,100024.00
2023-08-20T20:28:21.846Z,100027.28
2023-08-20T20:30:50.896Z,100023.00
2023-08-20T20:33:19.715Z,100020.53
2023-08-20T20:35:53.966Z,100022.53
2023-08-20T20:38:23.328Z,100029.75
2023-08-20T20:40:52.503Z,100030.97
2023-08-20T20:43:26.050Z,100026.53
2023-08-20T20:45:55.509Z,100027.66
2023-08-20T20:48:24.015Z,100034.03
2023-08-20T20:50:53.226Z,100033.19
2023-08-20T20:53:22.029Z,100033.59
2023-08-20T20:55:51.290Z,100031.91
2023-08-20T20:58:20.139Z,100037.13
2023-08-20T21:00:50.491Z,100038.81
2023-08-20T21:03:19.536Z,100035.34
2023-08-20T21:05:48.368Z,100036.31
2023-08-20T21:08:17.202Z,100039.09
2023-08-20T21:10:46.013Z,100041.53
2023-08-20T21:13:15.325Z,100040.50
2023-08-20T21:15:44.186Z,100041.88
2023-08-20T21:18:14.634Z,100051.31
2023-08-20T21:20:43.675Z,100053.31
2023-08-20T21:23:12.469Z,100045.97
2023-08-20T21:25:41.393Z,100046.31
2023-08-20T21:28:10.588Z,100050.06
2023-08-20T21:30:39.482Z,100045.97
2023-08-20T21:33:08.508Z,100050.56
2023-08-20T21:35:38.717Z,100045.66
2023-08-20T21:38:07.732Z,100052.22
2023-08-20T21:40:36.888Z,100060.06
2023-08-20T21:43:08.392Z,100057.00
2023-08-20T21:45:37.651Z,100054.16
2023-08-20T21:48:07.288Z,100061.00
2023-08-20T21:50:36.211Z,100058.56
2023-08-20T21:53:06.877Z,100065.66
2023-08-20T21:55:36.963Z,100069.88
2023-08-20T21:58:06.044Z,100074.44
2023-08-20T22:00:34.963Z,100072.25
2023-08-20T22:05:32.462Z,100070.13
2023-08-20T22:08:01.446Z,100070.78
2023-08-20T22:10:31.852Z,100073.81
2023-08-20T22:13:00.763Z,100071.63
2023-08-20T22:15:29.766Z,100074.22
2023-08-20T22:17:59.211Z,100067.09
2023-08-20T22:20:28.437Z,100076.69
2023-08-20T22:22:57.431Z,100068.38
2023-08-20T22:25:26.703Z,100074.00
2023-08-20T22:27:57.071Z,100070.56
2023-08-20T22:30:25.994Z,100075.81
2023-08-20T22:32:54.832Z,100076.94
2023-08-20T22:35:24.136Z,100077.34
2023-08-20T22:38:06.475Z,100079.88
2023-08-20T22:40:35.598Z,100089.41
2023-08-20T22:43:06.603Z,100071.31
2023-08-20T22:45:35.632Z,100081.91
2023-08-20T22:48:04.554Z,100084.44
2023-08-20T22:50:34.184Z,100080.44
2023-08-20T22:53:04.561Z,100086.50
2023-08-20T22:55:33.423Z,100078.06
2023-08-20T22:58:02.662Z,100084.31
2023-08-20T23:00:32.963Z,100089.56
2023-08-20T23:03:01.979Z,100087.16
2023-08-20T23:05:30.880Z,100081.97
2023-08-20T23:07:59.700Z,100088.41
2023-08-20T23:10:28.547Z,100084.28
2023-08-20T23:12:57.673Z,100089.78
2023-08-20T23:15:26.419Z,100076.00
2023-08-20T23:17:57.544Z,100079.59
2023-08-20T23:20:26.441Z,100082.22
2023-08-20T23:22:55.235Z,100081.31
2023-08-20T23:25:24.397Z,100072.34
2023-08-20T23:27:53.163Z,100074.00
2023-08-20T23:30:22.009Z,100076.50
2023-08-20T23:32:52.556Z,100069.41
2023-08-20T23:35:23.122Z,100068.56
2023-08-20T23:37:51.894Z,100071.94
2023-08-20T23:40:20.771Z,100073.56
2023-08-20T23:42:51.479Z,100068.28
2023-08-20T23:45:20.359Z,100081.38
2023-08-20T23:47:49.163Z,100079.66
2023-08-20T23:50:18.356Z,100090.84
2023-08-20T23:52:48.752Z,100082.94
2023-08-20T23:55:17.794Z,100085.06
2023-08-20T23:57:46.642Z,100083.44
